メインページ
METAR-TAF:

METAR-TAF

空港 :

むつ, 日本

大湊警備府

緯度: 41-14N, 経度: 141-08E, 海抜: 7m

現時点の気象観測

当レポートは15分前の23:36(UTC)に作成
南西の風 6kt、から西/南西の間で変化する
気温 -4°C
湿度 86%
気圧 1018 hPa
視程: 1000m
高度600ftの雲は散在している
高度1000ftの千切れ雲あり
弱いにわか雪

METAR: RJSO 182336Z 22006KT 190V250 1000 R04///// -SHSN SCT006 BKN010 M04/M06 Q1018 RMK 4ST006 7ST010 A3008

時間: 08:51 (23:51 UTC)


TAF: 見つかりません

4,000以上の空港の気象観測と天気予報(METAR報とTAF報)

利用可能な観測所は地図上に黄色い丸と赤い丸で示す。

丸の上にカーソルを重ねると観測所名を参照できる。

次にクリックすると気象観測と天気予報を参照できる。

マップの切り替え:黒色「×」印の緑ボタンをクリックして拡大、「-」印の緑ボタンをクリックして縮小、緑色の三角印をクリックして隣りの地図に切り替え


METAR-TAF: